sensor_id;sensor_type;location;lat;lon;timestamp;P1;durP1;ratioP1;P2;durP2;ratioP2
7021;SDS011;3552;42.664;23.406;2022-09-09T00:01:59;7.87;;;6.63;;
7021;SDS011;3552;42.664;23.406;2022-09-09T00:04:30;10.37;;;6.83;;
7021;SDS011;3552;42.664;23.406;2022-09-09T00:07:00;7.73;;;6.93;;
7021;SDS011;3552;42.664;23.406;2022-09-09T00:09:35;12.53;;;7.40;;
7021;SDS011;3552;42.664;23.406;2022-09-09T00:12:11;10.83;;;7.63;;
7021;SDS011;3552;42.664;23.406;2022-09-09T00:14:46;7.70;;;7.00;;
7021;SDS011;3552;42.664;23.406;2022-09-09T00:17:25;11.50;;;6.80;;
7021;SDS011;3552;42.664;23.406;2022-09-09T00:20:00;11.20;;;7.87;;
7021;SDS011;3552;42.664;23.406;2022-09-09T00:22:32;8.60;;;6.67;;
7021;SDS011;3552;42.664;23.406;2022-09-09T00:25:02;8.03;;;6.90;;
7021;SDS011;3552;42.664;23.406;2022-09-09T00:27:39;7.93;;;7.10;;
7021;SDS011;3552;42.664;23.406;2022-09-09T00:30:15;12.67;;;6.87;;
7021;SDS011;3552;42.664;23.406;2022-09-09T00:32:47;10.63;;;7.27;;
7021;SDS011;3552;42.664;23.406;2022-09-09T00:35:17;9.30;;;6.90;;
7021;SDS011;3552;42.664;23.406;2022-09-09T00:37:50;11.23;;;7.40;;
7021;SDS011;3552;42.664;23.406;2022-09-09T00:40:23;8.43;;;7.47;;
7021;SDS011;3552;42.664;23.406;2022-09-09T00:43:03;8.03;;;6.73;;
7021;SDS011;3552;42.664;23.406;2022-09-09T00:45:59;9.50;;;7.40;;
7021;SDS011;3552;42.664;23.406;2022-09-09T00:48:54;10.33;;;7.30;;
7021;SDS011;3552;42.664;23.406;2022-09-09T00:51:34;10.00;;;7.97;;
7021;SDS011;3552;42.664;23.406;2022-09-09T00:54:27;10.13;;;7.63;;
7021;SDS011;3552;42.664;23.406;2022-09-09T00:57:06;14.07;;;7.57;;
7021;SDS011;3552;42.664;23.406;2022-09-09T00:59:45;9.93;;;8.30;;
7021;SDS011;3552;42.664;23.406;2022-09-09T01:02:17;10.67;;;7.30;;
7021;SDS011;3552;42.664;23.406;2022-09-09T01:04:58;13.80;;;8.20;;
7021;SDS011;3552;42.664;23.406;2022-09-09T01:07:30;10.00;;;8.13;;
7021;SDS011;3552;42.664;23.406;2022-09-09T01:09:57;11.37;;;8.13;;
7021;SDS011;3552;42.664;23.406;2022-09-09T01:12:33;13.07;;;7.77;;
7021;SDS011;3552;42.664;23.406;2022-09-09T01:15:10;11.33;;;8.20;;
7021;SDS011;3552;42.664;23.406;2022-09-09T01:17:50;10.80;;;7.87;;
7021;SDS011;3552;42.664;23.406;2022-09-09T01:20:25;12.17;;;7.90;;
7021;SDS011;3552;42.664;23.406;2022-09-09T01:23:00;8.90;;;7.63;;
7021;SDS011;3552;42.664;23.406;2022-09-09T01:26:03;10.40;;;7.63;;
7021;SDS011;3552;42.664;23.406;2022-09-09T01:28:39;10.77;;;7.97;;
7021;SDS011;3552;42.664;23.406;2022-09-09T01:31:10;9.93;;;7.87;;
7021;SDS011;3552;42.664;23.406;2022-09-09T01:33:40;13.90;;;8.50;;
7021;SDS011;3552;42.664;23.406;2022-09-09T01:36:08;12.43;;;8.57;;
7021;SDS011;3552;42.664;23.406;2022-09-09T01:38:36;10.83;;;7.60;;
7021;SDS011;3552;42.664;23.406;2022-09-09T01:41:05;12.53;;;8.80;;
7021;SDS011;3552;42.664;23.406;2022-09-09T01:43:32;13.57;;;8.60;;
7021;SDS011;3552;42.664;23.406;2022-09-09T01:46:00;10.57;;;8.30;;
7021;SDS011;3552;42.664;23.406;2022-09-09T01:48:29;15.83;;;9.17;;
7021;SDS011;3552;42.664;23.406;2022-09-09T01:50:57;13.10;;;9.30;;
7021;SDS011;3552;42.664;23.406;2022-09-09T01:53:24;14.40;;;9.00;;
7021;SDS011;3552;42.664;23.406;2022-09-09T01:55:55;12.13;;;8.27;;
7021;SDS011;3552;42.664;23.406;2022-09-09T01:58:34;11.20;;;8.77;;
7021;SDS011;3552;42.664;23.406;2022-09-09T02:01:12;11.80;;;8.60;;
7021;SDS011;3552;42.664;23.406;2022-09-09T02:03:50;14.00;;;8.30;;
7021;SDS011;3552;42.664;23.406;2022-09-09T02:06:25;9.57;;;8.00;;
7021;SDS011;3552;42.664;23.406;2022-09-09T02:08:55;10.47;;;8.33;;
7021;SDS011;3552;42.664;23.406;2022-09-09T02:11:29;10.27;;;7.80;;
7021;SDS011;3552;42.664;23.406;2022-09-09T02:14:00;11.23;;;8.43;;
7021;SDS011;3552;42.664;23.406;2022-09-09T02:16:32;11.07;;;7.63;;
7021;SDS011;3552;42.664;23.406;2022-09-09T02:19:06;12.60;;;8.60;;
7021;SDS011;3552;42.664;23.406;2022-09-09T02:21:38;16.10;;;8.93;;
7021;SDS011;3552;42.664;23.406;2022-09-09T02:24:08;14.77;;;8.60;;
7021;SDS011;3552;42.664;23.406;2022-09-09T02:26:40;12.80;;;9.00;;
7021;SDS011;3552;42.664;23.406;2022-09-09T02:29:12;13.23;;;8.77;;
7021;SDS011;3552;42.664;23.406;2022-09-09T02:31:42;11.97;;;8.67;;
7021;SDS011;3552;42.664;23.406;2022-09-09T02:34:13;12.40;;;9.20;;
7021;SDS011;3552;42.664;23.406;2022-09-09T02:36:43;9.73;;;8.73;;
7021;SDS011;3552;42.664;23.406;2022-09-09T02:39:12;19.00;;;9.60;;
7021;SDS011;3552;42.664;23.406;2022-09-09T02:41:41;15.47;;;8.73;;
7021;SDS011;3552;42.664;23.406;2022-09-09T02:44:11;12.63;;;9.10;;
7021;SDS011;3552;42.664;23.406;2022-09-09T02:46:46;13.17;;;9.27;;
7021;SDS011;3552;42.664;23.406;2022-09-09T02:49:27;16.23;;;9.33;;
7021;SDS011;3552;42.664;23.406;2022-09-09T02:52:04;15.63;;;9.33;;
7021;SDS011;3552;42.664;23.406;2022-09-09T02:54:35;12.37;;;9.43;;
7021;SDS011;3552;42.664;23.406;2022-09-09T02:57:06;14.77;;;9.60;;
7021;SDS011;3552;42.664;23.406;2022-09-09T02:59:38;16.33;;;10.20;;
7021;SDS011;3552;42.664;23.406;2022-09-09T03:02:06;12.93;;;9.80;;
7021;SDS011;3552;42.664;23.406;2022-09-09T03:04:36;21.57;;;10.47;;
7021;SDS011;3552;42.664;23.406;2022-09-09T03:07:04;18.03;;;10.37;;
7021;SDS011;3552;42.664;23.406;2022-09-09T03:09:31;14.37;;;9.10;;
7021;SDS011;3552;42.664;23.406;2022-09-09T03:11:58;15.13;;;9.23;;
7021;SDS011;3552;42.664;23.406;2022-09-09T03:14:26;10.80;;;9.33;;
7021;SDS011;3552;42.664;23.406;2022-09-09T03:16:58;13.07;;;9.07;;
7021;SDS011;3552;42.664;23.406;2022-09-09T03:19:26;16.57;;;9.83;;
7021;SDS011;3552;42.664;23.406;2022-09-09T03:21:56;15.80;;;9.17;;
7021;SDS011;3552;42.664;23.406;2022-09-09T03:24:23;15.17;;;9.33;;
7021;SDS011;3552;42.664;23.406;2022-09-09T03:26:51;19.83;;;9.50;;
7021;SDS011;3552;42.664;23.406;2022-09-09T03:29:18;12.80;;;9.30;;
7021;SDS011;3552;42.664;23.406;2022-09-09T03:31:46;15.30;;;8.73;;
7021;SDS011;3552;42.664;23.406;2022-09-09T03:34:15;19.57;;;9.53;;
7021;SDS011;3552;42.664;23.406;2022-09-09T03:36:42;15.77;;;8.43;;
7021;SDS011;3552;42.664;23.406;2022-09-09T03:39:10;14.37;;;9.27;;
7021;SDS011;3552;42.664;23.406;2022-09-09T03:41:37;15.73;;;8.83;;
7021;SDS011;3552;42.664;23.406;2022-09-09T03:44:03;15.33;;;9.20;;
7021;SDS011;3552;42.664;23.406;2022-09-09T03:46:30;21.87;;;9.93;;
7021;SDS011;3552;42.664;23.406;2022-09-09T03:48:57;16.40;;;9.00;;
7021;SDS011;3552;42.664;23.406;2022-09-09T03:51:26;17.53;;;10.07;;
7021;SDS011;3552;42.664;23.406;2022-09-09T03:53:53;20.47;;;9.80;;
7021;SDS011;3552;42.664;23.406;2022-09-09T03:56:21;17.17;;;9.17;;
7021;SDS011;3552;42.664;23.406;2022-09-09T03:58:49;17.00;;;9.40;;
7021;SDS011;3552;42.664;23.406;2022-09-09T04:01:16;16.57;;;9.47;;
7021;SDS011;3552;42.664;23.406;2022-09-09T04:03:43;12.70;;;9.00;;
7021;SDS011;3552;42.664;23.406;2022-09-09T04:06:11;16.67;;;9.17;;
7021;SDS011;3552;42.664;23.406;2022-09-09T04:08:41;19.17;;;9.90;;
7021;SDS011;3552;42.664;23.406;2022-09-09T04:11:09;20.03;;;9.93;;
7021;SDS011;3552;42.664;23.406;2022-09-09T04:13:38;25.07;;;10.50;;
7021;SDS011;3552;42.664;23.406;2022-09-09T04:16:05;19.23;;;9.80;;
7021;SDS011;3552;42.664;23.406;2022-09-09T04:18:35;21.67;;;9.73;;
7021;SDS011;3552;42.664;23.406;2022-09-09T04:21:02;17.13;;;10.27;;
7021;SDS011;3552;42.664;23.406;2022-09-09T04:23:33;24.10;;;10.40;;
7021;SDS011;3552;42.664;23.406;2022-09-09T04:26:06;22.77;;;9.73;;
7021;SDS011;3552;42.664;23.406;2022-09-09T04:28:34;26.43;;;10.13;;
7021;SDS011;3552;42.664;23.406;2022-09-09T04:31:06;17.00;;;10.37;;
7021;SDS011;3552;42.664;23.406;2022-09-09T04:33:37;28.53;;;10.60;;
7021;SDS011;3552;42.664;23.406;2022-09-09T04:36:04;19.43;;;10.07;;
7021;SDS011;3552;42.664;23.406;2022-09-09T04:38:31;22.33;;;10.00;;
7021;SDS011;3552;42.664;23.406;2022-09-09T04:40:58;15.00;;;9.27;;
7021;SDS011;3552;42.664;23.406;2022-09-09T04:43:28;17.37;;;9.07;;
7021;SDS011;3552;42.664;23.406;2022-09-09T04:45:56;19.17;;;10.47;;
7021;SDS011;3552;42.664;23.406;2022-09-09T04:48:24;27.90;;;11.47;;
7021;SDS011;3552;42.664;23.406;2022-09-09T04:50:55;13.40;;;9.73;;
7021;SDS011;3552;42.664;23.406;2022-09-09T04:53:24;12.63;;;8.67;;
7021;SDS011;3552;42.664;23.406;2022-09-09T04:55:51;17.03;;;9.80;;
7021;SDS011;3552;42.664;23.406;2022-09-09T04:58:18;14.20;;;9.60;;
7021;SDS011;3552;42.664;23.406;2022-09-09T05:00:49;18.67;;;8.93;;
7021;SDS011;3552;42.664;23.406;2022-09-09T05:03:17;22.87;;;9.27;;
7021;SDS011;3552;42.664;23.406;2022-09-09T05:05:45;14.90;;;10.00;;
7021;SDS011;3552;42.664;23.406;2022-09-09T05:08:12;17.50;;;9.47;;
7021;SDS011;3552;42.664;23.406;2022-09-09T05:10:40;13.63;;;9.23;;
7021;SDS011;3552;42.664;23.406;2022-09-09T05:13:09;11.33;;;8.57;;
7021;SDS011;3552;42.664;23.406;2022-09-09T05:15:36;14.03;;;9.43;;
7021;SDS011;3552;42.664;23.406;2022-09-09T05:18:05;15.40;;;9.70;;
7021;SDS011;3552;42.664;23.406;2022-09-09T05:20:33;12.47;;;9.53;;
7021;SDS011;3552;42.664;23.406;2022-09-09T05:23:02;12.43;;;8.33;;
7021;SDS011;3552;42.664;23.406;2022-09-09T05:25:30;16.23;;;9.13;;
7021;SDS011;3552;42.664;23.406;2022-09-09T05:27:58;12.27;;;8.83;;
7021;SDS011;3552;42.664;23.406;2022-09-09T05:30:24;17.23;;;8.37;;
7021;SDS011;3552;42.664;23.406;2022-09-09T05:32:51;15.90;;;8.60;;
7021;SDS011;3552;42.664;23.406;2022-09-09T05:35:23;11.23;;;7.93;;
7021;SDS011;3552;42.664;23.406;2022-09-09T05:37:50;20.73;;;8.90;;
7021;SDS011;3552;42.664;23.406;2022-09-09T05:40:17;14.40;;;8.57;;
7021;SDS011;3552;42.664;23.406;2022-09-09T05:42:44;12.83;;;7.83;;
7021;SDS011;3552;42.664;23.406;2022-09-09T05:45:11;12.87;;;7.80;;
7021;SDS011;3552;42.664;23.406;2022-09-09T05:47:38;11.27;;;7.30;;
7021;SDS011;3552;42.664;23.406;2022-09-09T05:50:06;16.37;;;7.80;;
7021;SDS011;3552;42.664;23.406;2022-09-09T05:52:34;14.73;;;8.43;;
7021;SDS011;3552;42.664;23.406;2022-09-09T05:55:01;19.57;;;7.60;;
7021;SDS011;3552;42.664;23.406;2022-09-09T05:57:29;15.60;;;7.20;;
7021;SDS011;3552;42.664;23.406;2022-09-09T05:59:57;12.77;;;6.67;;
7021;SDS011;3552;42.664;23.406;2022-09-09T06:02:24;13.93;;;6.40;;
7021;SDS011;3552;42.664;23.406;2022-09-09T06:04:51;11.20;;;6.67;;
7021;SDS011;3552;42.664;23.406;2022-09-09T06:07:20;13.93;;;6.17;;
7021;SDS011;3552;42.664;23.406;2022-09-09T06:09:51;8.63;;;5.70;;
7021;SDS011;3552;42.664;23.406;2022-09-09T06:12:18;9.50;;;6.30;;
7021;SDS011;3552;42.664;23.406;2022-09-09T06:14:46;12.10;;;6.10;;
7021;SDS011;3552;42.664;23.406;2022-09-09T06:17:13;13.83;;;6.13;;
7021;SDS011;3552;42.664;23.406;2022-09-09T06:19:41;9.23;;;6.00;;
7021;SDS011;3552;42.664;23.406;2022-09-09T06:22:09;12.20;;;5.87;;
7021;SDS011;3552;42.664;23.406;2022-09-09T06:24:38;10.77;;;5.67;;
7021;SDS011;3552;42.664;23.406;2022-09-09T06:27:07;9.43;;;5.80;;
7021;SDS011;3552;42.664;23.406;2022-09-09T06:29:34;6.80;;;5.63;;
7021;SDS011;3552;42.664;23.406;2022-09-09T06:32:01;9.13;;;5.50;;
7021;SDS011;3552;42.664;23.406;2022-09-09T06:34:29;11.00;;;5.80;;
7021;SDS011;3552;42.664;23.406;2022-09-09T06:36:56;13.60;;;6.40;;
7021;SDS011;3552;42.664;23.406;2022-09-09T06:39:24;14.50;;;6.70;;
7021;SDS011;3552;42.664;23.406;2022-09-09T06:41:51;12.57;;;6.13;;
7021;SDS011;3552;42.664;23.406;2022-09-09T06:44:20;6.87;;;5.00;;
7021;SDS011;3552;42.664;23.406;2022-09-09T06:46:48;7.63;;;5.53;;
7021;SDS011;3552;42.664;23.406;2022-09-09T06:49:15;8.83;;;5.40;;
7021;SDS011;3552;42.664;23.406;2022-09-09T06:51:42;8.07;;;5.57;;
7021;SDS011;3552;42.664;23.406;2022-09-09T06:54:10;7.77;;;5.17;;
7021;SDS011;3552;42.664;23.406;2022-09-09T06:56:38;9.83;;;4.80;;
7021;SDS011;3552;42.664;23.406;2022-09-09T06:59:08;9.43;;;5.03;;
7021;SDS011;3552;42.664;23.406;2022-09-09T07:01:38;12.23;;;5.10;;
7021;SDS011;3552;42.664;23.406;2022-09-09T07:04:06;7.97;;;4.80;;
7021;SDS011;3552;42.664;23.406;2022-09-09T07:06:34;7.53;;;5.00;;
7021;SDS011;3552;42.664;23.406;2022-09-09T07:09:02;5.03;;;4.53;;
7021;SDS011;3552;42.664;23.406;2022-09-09T07:11:31;12.33;;;5.30;;
7021;SDS011;3552;42.664;23.406;2022-09-09T07:14:00;7.93;;;4.70;;
7021;SDS011;3552;42.664;23.406;2022-09-09T07:16:28;17.53;;;4.80;;
7021;SDS011;3552;42.664;23.406;2022-09-09T07:18:58;7.47;;;4.67;;
7021;SDS011;3552;42.664;23.406;2022-09-09T07:21:27;6.97;;;4.90;;
7021;SDS011;3552;42.664;23.406;2022-09-09T07:23:55;9.37;;;4.63;;
7021;SDS011;3552;42.664;23.406;2022-09-09T07:26:24;8.23;;;5.00;;
7021;SDS011;3552;42.664;23.406;2022-09-09T07:28:52;7.03;;;5.20;;
7021;SDS011;3552;42.664;23.406;2022-09-09T07:31:22;8.83;;;4.93;;
7021;SDS011;3552;42.664;23.406;2022-09-09T07:33:51;10.90;;;5.87;;
7021;SDS011;3552;42.664;23.406;2022-09-09T07:36:20;8.17;;;4.97;;
7021;SDS011;3552;42.664;23.406;2022-09-09T07:38:50;11.23;;;4.80;;
7021;SDS011;3552;42.664;23.406;2022-09-09T07:41:20;7.47;;;5.20;;
7021;SDS011;3552;42.664;23.406;2022-09-09T07:43:50;9.60;;;5.07;;
7021;SDS011;3552;42.664;23.406;2022-09-09T07:46:19;16.40;;;5.30;;
7021;SDS011;3552;42.664;23.406;2022-09-09T07:48:49;15.10;;;5.33;;
7021;SDS011;3552;42.664;23.406;2022-09-09T07:51:18;8.97;;;5.33;;
7021;SDS011;3552;42.664;23.406;2022-09-09T07:53:48;10.30;;;5.23;;
7021;SDS011;3552;42.664;23.406;2022-09-09T07:56:19;10.17;;;5.57;;
7021;SDS011;3552;42.664;23.406;2022-09-09T07:58:48;10.83;;;6.47;;
7021;SDS011;3552;42.664;23.406;2022-09-09T08:01:18;12.47;;;4.90;;
7021;SDS011;3552;42.664;23.406;2022-09-09T08:03:46;9.43;;;4.90;;
7021;SDS011;3552;42.664;23.406;2022-09-09T08:06:20;10.50;;;5.10;;
7021;SDS011;3552;42.664;23.406;2022-09-09T08:08:49;8.50;;;5.17;;
7021;SDS011;3552;42.664;23.406;2022-09-09T08:11:17;10.90;;;5.13;;
7021;SDS011;3552;42.664;23.406;2022-09-09T08:13:45;8.30;;;4.67;;
7021;SDS011;3552;42.664;23.406;2022-09-09T08:16:13;11.27;;;4.83;;
7021;SDS011;3552;42.664;23.406;2022-09-09T08:18:41;9.27;;;5.57;;
7021;SDS011;3552;42.664;23.406;2022-09-09T08:21:09;8.33;;;5.37;;
7021;SDS011;3552;42.664;23.406;2022-09-09T08:23:42;17.97;;;5.53;;
7021;SDS011;3552;42.664;23.406;2022-09-09T08:26:12;10.40;;;4.90;;
7021;SDS011;3552;42.664;23.406;2022-09-09T08:28:42;18.40;;;5.93;;
7021;SDS011;3552;42.664;23.406;2022-09-09T08:31:11;7.53;;;4.80;;
7021;SDS011;3552;42.664;23.406;2022-09-09T08:33:40;12.13;;;5.10;;
7021;SDS011;3552;42.664;23.406;2022-09-09T08:36:11;9.67;;;5.20;;
7021;SDS011;3552;42.664;23.406;2022-09-09T08:38:42;11.70;;;5.50;;
7021;SDS011;3552;42.664;23.406;2022-09-09T08:41:17;14.10;;;5.90;;
7021;SDS011;3552;42.664;23.406;2022-09-09T08:44:02;8.57;;;4.97;;
7021;SDS011;3552;42.664;23.406;2022-09-09T08:46:36;9.63;;;5.20;;
7021;SDS011;3552;42.664;23.406;2022-09-09T08:49:22;8.80;;;4.60;;
7021;SDS011;3552;42.664;23.406;2022-09-09T08:52:12;9.53;;;4.70;;
7021;SDS011;3552;42.664;23.406;2022-09-09T08:55:02;5.73;;;4.80;;
7021;SDS011;3552;42.664;23.406;2022-09-09T09:00:27;13.23;;;5.23;;
7021;SDS011;3552;42.664;23.406;2022-09-09T09:03:09;10.67;;;5.43;;
7021;SDS011;3552;42.664;23.406;2022-09-09T09:05:47;8.80;;;5.40;;
7021;SDS011;3552;42.664;23.406;2022-09-09T09:08:25;16.10;;;5.97;;
7021;SDS011;3552;42.664;23.406;2022-09-09T09:10:59;17.73;;;5.93;;
7021;SDS011;3552;42.664;23.406;2022-09-09T09:13:30;19.50;;;5.90;;
7021;SDS011;3552;42.664;23.406;2022-09-09T09:16:05;9.23;;;5.60;;
7021;SDS011;3552;42.664;23.406;2022-09-09T09:18:49;15.60;;;5.33;;
7021;SDS011;3552;42.664;23.406;2022-09-09T09:21:19;12.10;;;5.17;;
7021;SDS011;3552;42.664;23.406;2022-09-09T09:23:56;12.67;;;5.10;;
7021;SDS011;3552;42.664;23.406;2022-09-09T09:26:28;9.43;;;5.00;;
7021;SDS011;3552;42.664;23.406;2022-09-09T09:28:58;10.00;;;5.07;;
7021;SDS011;3552;42.664;23.406;2022-09-09T09:31:27;11.57;;;5.53;;
7021;SDS011;3552;42.664;23.406;2022-09-09T09:33:55;8.40;;;5.20;;
7021;SDS011;3552;42.664;23.406;2022-09-09T09:36:24;8.50;;;4.93;;
7021;SDS011;3552;42.664;23.406;2022-09-09T09:39:01;11.20;;;5.07;;
7021;SDS011;3552;42.664;23.406;2022-09-09T09:41:34;8.00;;;5.67;;
7021;SDS011;3552;42.664;23.406;2022-09-09T09:44:03;16.00;;;5.50;;
7021;SDS011;3552;42.664;23.406;2022-09-09T09:46:32;15.63;;;5.90;;
7021;SDS011;3552;42.664;23.406;2022-09-09T09:49:02;8.37;;;5.67;;
7021;SDS011;3552;42.664;23.406;2022-09-09T09:51:32;11.10;;;5.53;;
7021;SDS011;3552;42.664;23.406;2022-09-09T09:54:07;7.97;;;5.03;;
7021;SDS011;3552;42.664;23.406;2022-09-09T09:56:42;9.60;;;5.30;;
7021;SDS011;3552;42.664;23.406;2022-09-09T09:59:19;19.07;;;5.63;;
7021;SDS011;3552;42.664;23.406;2022-09-09T10:01:49;10.47;;;5.47;;
7021;SDS011;3552;42.664;23.406;2022-09-09T10:04:18;8.87;;;5.30;;
7021;SDS011;3552;42.664;23.406;2022-09-09T10:06:48;7.70;;;5.20;;
7021;SDS011;3552;42.664;23.406;2022-09-09T10:09:20;8.70;;;5.60;;
7021;SDS011;3552;42.664;23.406;2022-09-09T10:11:54;11.30;;;5.03;;
7021;SDS011;3552;42.664;23.406;2022-09-09T10:14:30;9.80;;;5.77;;
7021;SDS011;3552;42.664;23.406;2022-09-09T10:17:12;8.47;;;5.13;;
7021;SDS011;3552;42.664;23.406;2022-09-09T10:19:51;12.03;;;5.40;;
7021;SDS011;3552;42.664;23.406;2022-09-09T10:22:28;11.83;;;5.90;;
7021;SDS011;3552;42.664;23.406;2022-09-09T10:31:02;11.43;;;5.73;;
7021;SDS011;3552;42.664;23.406;2022-09-09T10:33:37;11.13;;;5.53;;
7021;SDS011;3552;42.664;23.406;2022-09-09T10:36:13;7.10;;;5.30;;
7021;SDS011;3552;42.664;23.406;2022-09-09T10:38:45;8.43;;;5.00;;
7021;SDS011;3552;42.664;23.406;2022-09-09T10:41:16;13.77;;;5.80;;
7021;SDS011;3552;42.664;23.406;2022-09-09T10:46:57;7.83;;;5.50;;
7021;SDS011;3552;42.664;23.406;2022-09-09T10:49:46;11.27;;;5.37;;
7021;SDS011;3552;42.664;23.406;2022-09-09T10:52:31;10.30;;;5.37;;
7021;SDS011;3552;42.664;23.406;2022-09-09T10:55:07;13.10;;;4.97;;
7021;SDS011;3552;42.664;23.406;2022-09-09T10:57:40;11.53;;;5.73;;
7021;SDS011;3552;42.664;23.406;2022-09-09T11:00:15;7.63;;;5.53;;
7021;SDS011;3552;42.664;23.406;2022-09-09T11:02:45;12.83;;;5.97;;
7021;SDS011;3552;42.664;23.406;2022-09-09T11:05:27;8.57;;;5.40;;
7021;SDS011;3552;42.664;23.406;2022-09-09T11:08:01;8.50;;;5.60;;
7021;SDS011;3552;42.664;23.406;2022-09-09T11:10:34;12.37;;;5.80;;
7021;SDS011;3552;42.664;23.406;2022-09-09T11:13:09;18.47;;;6.90;;
7021;SDS011;3552;42.664;23.406;2022-09-09T11:15:44;10.27;;;5.90;;
7021;SDS011;3552;42.664;23.406;2022-09-09T11:18:17;10.53;;;5.60;;
7021;SDS011;3552;42.664;23.406;2022-09-09T11:20:49;9.00;;;5.73;;
7021;SDS011;3552;42.664;23.406;2022-09-09T11:23:22;15.37;;;6.40;;
7021;SDS011;3552;42.664;23.406;2022-09-09T11:25:54;12.67;;;5.60;;
7021;SDS011;3552;42.664;23.406;2022-09-09T11:28:32;9.67;;;6.00;;
7021;SDS011;3552;42.664;23.406;2022-09-09T11:31:26;13.10;;;6.20;;
7021;SDS011;3552;42.664;23.406;2022-09-09T11:34:33;16.73;;;6.90;;
7021;SDS011;3552;42.664;23.406;2022-09-09T11:37:21;13.40;;;6.97;;
7021;SDS011;3552;42.664;23.406;2022-09-09T11:40:17;11.93;;;7.10;;
7021;SDS011;3552;42.664;23.406;2022-09-09T11:43:01;10.70;;;6.27;;
7021;SDS011;3552;42.664;23.406;2022-09-09T11:45:31;14.63;;;6.23;;
7021;SDS011;3552;42.664;23.406;2022-09-09T11:48:03;12.20;;;7.77;;
7021;SDS011;3552;42.664;23.406;2022-09-09T11:50:33;9.57;;;6.90;;
7021;SDS011;3552;42.664;23.406;2022-09-09T11:55:48;13.23;;;7.83;;
7021;SDS011;3552;42.664;23.406;2022-09-09T11:58:31;13.87;;;6.83;;
7021;SDS011;3552;42.664;23.406;2022-09-09T12:07:22;10.10;;;7.00;;
7021;SDS011;3552;42.664;23.406;2022-09-09T12:09:59;19.87;;;7.63;;
7021;SDS011;3552;42.664;23.406;2022-09-09T12:12:47;12.50;;;6.90;;
7021;SDS011;3552;42.664;23.406;2022-09-09T12:15:25;11.60;;;6.67;;
7021;SDS011;3552;42.664;23.406;2022-09-09T12:17:58;11.07;;;7.17;;
7021;SDS011;3552;42.664;23.406;2022-09-09T12:20:35;17.07;;;7.33;;
7021;SDS011;3552;42.664;23.406;2022-09-09T12:25:58;12.77;;;6.73;;
7021;SDS011;3552;42.664;23.406;2022-09-09T12:28:50;15.10;;;6.97;;
7021;SDS011;3552;42.664;23.406;2022-09-09T12:31:24;15.50;;;7.30;;
7021;SDS011;3552;42.664;23.406;2022-09-09T12:34:03;10.10;;;7.30;;
7021;SDS011;3552;42.664;23.406;2022-09-09T12:36:39;10.73;;;6.33;;
7021;SDS011;3552;42.664;23.406;2022-09-09T12:39:14;12.57;;;7.30;;
7021;SDS011;3552;42.664;23.406;2022-09-09T12:41:50;16.17;;;7.20;;
7021;SDS011;3552;42.664;23.406;2022-09-09T12:44:22;17.40;;;8.43;;
7021;SDS011;3552;42.664;23.406;2022-09-09T12:46:50;12.20;;;7.13;;
7021;SDS011;3552;42.664;23.406;2022-09-09T12:49:27;12.73;;;7.33;;
7021;SDS011;3552;42.664;23.406;2022-09-09T12:52:05;19.30;;;7.80;;
7021;SDS011;3552;42.664;23.406;2022-09-09T12:54:35;13.13;;;6.87;;
7021;SDS011;3552;42.664;23.406;2022-09-09T12:57:03;14.10;;;7.43;;
7021;SDS011;3552;42.664;23.406;2022-09-09T12:59:35;13.97;;;7.63;;
7021;SDS011;3552;42.664;23.406;2022-09-09T13:02:10;16.33;;;7.90;;
7021;SDS011;3552;42.664;23.406;2022-09-09T13:04:43;10.63;;;6.40;;
7021;SDS011;3552;42.664;23.406;2022-09-09T13:07:13;17.17;;;7.23;;
7021;SDS011;3552;42.664;23.406;2022-09-09T13:09:42;16.33;;;7.97;;
7021;SDS011;3552;42.664;23.406;2022-09-09T13:12:12;13.17;;;7.03;;
7021;SDS011;3552;42.664;23.406;2022-09-09T13:14:42;13.73;;;7.23;;
7021;SDS011;3552;42.664;23.406;2022-09-09T13:17:15;16.97;;;6.93;;
7021;SDS011;3552;42.664;23.406;2022-09-09T13:19:46;16.40;;;7.50;;
7021;SDS011;3552;42.664;23.406;2022-09-09T13:22:20;14.77;;;7.07;;
7021;SDS011;3552;42.664;23.406;2022-09-09T13:24:59;15.27;;;7.10;;
7021;SDS011;3552;42.664;23.406;2022-09-09T13:27:29;14.93;;;7.33;;
7021;SDS011;3552;42.664;23.406;2022-09-09T13:29:59;15.07;;;7.37;;
7021;SDS011;3552;42.664;23.406;2022-09-09T13:32:43;15.57;;;7.10;;
7021;SDS011;3552;42.664;23.406;2022-09-09T13:35:22;14.00;;;7.43;;
7021;SDS011;3552;42.664;23.406;2022-09-09T13:37:53;17.37;;;7.47;;
7021;SDS011;3552;42.664;23.406;2022-09-09T13:40:21;15.17;;;7.23;;
7021;SDS011;3552;42.664;23.406;2022-09-09T13:42:51;13.00;;;7.47;;
7021;SDS011;3552;42.664;23.406;2022-09-09T13:45:21;14.13;;;7.27;;
7021;SDS011;3552;42.664;23.406;2022-09-09T13:47:51;14.13;;;7.60;;
7021;SDS011;3552;42.664;23.406;2022-09-09T13:50:21;16.07;;;7.60;;
7021;SDS011;3552;42.664;23.406;2022-09-09T13:52:53;12.10;;;6.67;;
7021;SDS011;3552;42.664;23.406;2022-09-09T13:55:23;12.53;;;7.97;;
7021;SDS011;3552;42.664;23.406;2022-09-09T13:57:51;13.93;;;7.93;;
7021;SDS011;3552;42.664;23.406;2022-09-09T14:00:19;14.57;;;8.30;;
7021;SDS011;3552;42.664;23.406;2022-09-09T14:02:46;19.70;;;8.20;;
7021;SDS011;3552;42.664;23.406;2022-09-09T14:05:14;21.53;;;7.43;;
7021;SDS011;3552;42.664;23.406;2022-09-09T14:07:42;12.83;;;7.70;;
7021;SDS011;3552;42.664;23.406;2022-09-09T14:10:13;13.07;;;7.40;;
7021;SDS011;3552;42.664;23.406;2022-09-09T14:12:40;16.23;;;7.23;;
7021;SDS011;3552;42.664;23.406;2022-09-09T14:15:09;12.90;;;7.43;;
7021;SDS011;3552;42.664;23.406;2022-09-09T14:17:37;16.17;;;8.40;;
7021;SDS011;3552;42.664;23.406;2022-09-09T14:20:06;14.33;;;7.13;;
7021;SDS011;3552;42.664;23.406;2022-09-09T14:22:34;16.37;;;7.60;;
7021;SDS011;3552;42.664;23.406;2022-09-09T14:25:04;18.67;;;7.43;;
7021;SDS011;3552;42.664;23.406;2022-09-09T14:27:33;14.60;;;7.30;;
7021;SDS011;3552;42.664;23.406;2022-09-09T14:30:00;11.77;;;7.87;;
7021;SDS011;3552;42.664;23.406;2022-09-09T14:32:29;12.50;;;7.23;;
7021;SDS011;3552;42.664;23.406;2022-09-09T14:34:56;15.27;;;6.80;;
7021;SDS011;3552;42.664;23.406;2022-09-09T14:37:25;13.50;;;6.80;;
7021;SDS011;3552;42.664;23.406;2022-09-09T14:39:53;11.13;;;7.30;;
7021;SDS011;3552;42.664;23.406;2022-09-09T14:42:24;11.30;;;6.67;;
7021;SDS011;3552;42.664;23.406;2022-09-09T14:44:56;18.53;;;7.27;;
7021;SDS011;3552;42.664;23.406;2022-09-09T14:47:26;17.60;;;8.30;;
7021;SDS011;3552;42.664;23.406;2022-09-09T14:49:55;16.40;;;7.07;;
7021;SDS011;3552;42.664;23.406;2022-09-09T14:52:23;12.33;;;7.30;;
7021;SDS011;3552;42.664;23.406;2022-09-09T14:54:54;15.03;;;7.33;;
7021;SDS011;3552;42.664;23.406;2022-09-09T14:57:25;20.43;;;7.07;;
7021;SDS011;3552;42.664;23.406;2022-09-09T14:59:54;15.73;;;8.07;;
7021;SDS011;3552;42.664;23.406;2022-09-09T15:02:24;15.07;;;6.63;;
7021;SDS011;3552;42.664;23.406;2022-09-09T15:04:53;12.43;;;7.20;;
7021;SDS011;3552;42.664;23.406;2022-09-09T15:07:26;14.57;;;7.33;;
7021;SDS011;3552;42.664;23.406;2022-09-09T15:09:53;14.70;;;7.50;;
7021;SDS011;3552;42.664;23.406;2022-09-09T15:12:22;11.87;;;7.30;;
7021;SDS011;3552;42.664;23.406;2022-09-09T15:14:50;14.40;;;7.23;;
7021;SDS011;3552;42.664;23.406;2022-09-09T15:17:19;19.27;;;7.87;;
7021;SDS011;3552;42.664;23.406;2022-09-09T15:19:48;17.63;;;7.67;;
7021;SDS011;3552;42.664;23.406;2022-09-09T15:22:15;15.67;;;7.20;;
7021;SDS011;3552;42.664;23.406;2022-09-09T15:24:42;15.33;;;6.73;;
7021;SDS011;3552;42.664;23.406;2022-09-09T15:27:10;15.30;;;7.60;;
7021;SDS011;3552;42.664;23.406;2022-09-09T15:29:39;15.93;;;7.60;;
7021;SDS011;3552;42.664;23.406;2022-09-09T15:32:07;13.23;;;7.17;;
7021;SDS011;3552;42.664;23.406;2022-09-09T15:34:36;12.53;;;7.97;;
7021;SDS011;3552;42.664;23.406;2022-09-09T15:37:04;19.73;;;7.40;;
7021;SDS011;3552;42.664;23.406;2022-09-09T15:39:32;18.27;;;7.53;;
7021;SDS011;3552;42.664;23.406;2022-09-09T15:41:59;16.40;;;7.83;;